sensor_id;sensor_type;location;lat;lon;timestamp;pressure;altitude;pressure_sealevel;temperature;humidity
59435;BME280;45241;49.768;8.636;2023-06-10T00:01:41;99840.72;;;24.44;55.22
59435;BME280;45241;49.768;8.636;2023-06-10T00:04:06;99841.53;;;24.21;55.29
59435;BME280;45241;49.768;8.636;2023-06-10T00:06:32;99843.53;;;23.81;55.69
59435;BME280;45241;49.768;8.636;2023-06-10T00:09:05;99845.66;;;23.89;56.02
59435;BME280;45241;49.768;8.636;2023-06-10T00:11:33;99843.97;;;24.22;55.63
59435;BME280;45241;49.768;8.636;2023-06-10T00:13:59;99843.03;;;24.32;54.53
59435;BME280;45241;49.768;8.636;2023-06-10T00:16:25;99838.94;;;24.05;55.10
59435;BME280;45241;49.768;8.636;2023-06-10T00:18:50;99837.66;;;24.22;55.14
59435;BME280;45241;49.768;8.636;2023-06-10T00:21:21;99831.94;;;23.94;54.19
59435;BME280;45241;49.768;8.636;2023-06-10T00:23:46;99840.88;;;24.05;54.03
59435;BME280;45241;49.768;8.636;2023-06-10T00:26:12;99842.56;;;24.25;54.18
59435;BME280;45241;49.768;8.636;2023-06-10T00:28:37;99838.19;;;24.24;53.91
59435;BME280;45241;49.768;8.636;2023-06-10T00:31:02;99840.59;;;24.30;53.61
59435;BME280;45241;49.768;8.636;2023-06-10T00:33:29;99849.09;;;24.29;53.64
59435;BME280;45241;49.768;8.636;2023-06-10T00:35:56;99846.06;;;24.07;53.98
59435;BME280;45241;49.768;8.636;2023-06-10T00:38:21;99836.66;;;23.55;55.56
59435;BME280;45241;49.768;8.636;2023-06-10T00:40:46;99843.44;;;24.20;54.77
59435;BME280;45241;49.768;8.636;2023-06-10T00:43:12;99841.28;;;24.17;53.74
59435;BME280;45241;49.768;8.636;2023-06-10T00:45:37;99836.44;;;24.09;53.37
59435;BME280;45241;49.768;8.636;2023-06-10T00:48:03;99838.66;;;24.31;53.16
59435;BME280;45241;49.768;8.636;2023-06-10T00:50:29;99838.66;;;24.07;53.82
59435;BME280;45241;49.768;8.636;2023-06-10T00:52:56;99835.81;;;24.41;52.74
59435;BME280;45241;49.768;8.636;2023-06-10T00:55:21;99836.03;;;24.45;53.26
59435;BME280;45241;49.768;8.636;2023-06-10T00:57:49;99847.59;;;24.42;53.06
59435;BME280;45241;49.768;8.636;2023-06-10T01:00:15;99842.81;;;24.28;52.99
59435;BME280;45241;49.768;8.636;2023-06-10T01:02:41;99850.75;;;24.30;52.89
59435;BME280;45241;49.768;8.636;2023-06-10T01:05:08;99843.63;;;23.71;54.14
59435;BME280;45241;49.768;8.636;2023-06-10T01:10:16;99850.22;;;24.28;53.09
59435;BME280;45241;49.768;8.636;2023-06-10T01:13:00;99843.50;;;24.15;53.21
59435;BME280;45241;49.768;8.636;2023-06-10T01:15:31;99839.88;;;24.20;52.72
59435;BME280;45241;49.768;8.636;2023-06-10T01:18:01;99842.91;;;23.94;54.10
59435;BME280;45241;49.768;8.636;2023-06-10T01:20:31;99845.47;;;23.81;53.60
59435;BME280;45241;49.768;8.636;2023-06-10T01:22:59;99842.63;;;24.20;53.42
59435;BME280;45241;49.768;8.636;2023-06-10T01:25:26;99846.78;;;24.17;53.25
59435;BME280;45241;49.768;8.636;2023-06-10T01:28:14;99839.75;;;23.77;53.92
59435;BME280;45241;49.768;8.636;2023-06-10T01:31:00;99842.34;;;23.92;53.78
59435;BME280;45241;49.768;8.636;2023-06-10T01:33:31;99846.72;;;23.59;54.49
59435;BME280;45241;49.768;8.636;2023-06-10T01:35:59;99844.53;;;23.95;53.34
59435;BME280;45241;49.768;8.636;2023-06-10T01:38:33;99848.72;;;23.83;53.94
59435;BME280;45241;49.768;8.636;2023-06-10T01:41:00;99849.09;;;23.71;54.34
59435;BME280;45241;49.768;8.636;2023-06-10T01:43:26;99853.28;;;23.92;54.37
59435;BME280;45241;49.768;8.636;2023-06-10T01:45:51;99849.72;;;23.97;54.76
59435;BME280;45241;49.768;8.636;2023-06-10T01:48:17;99848.13;;;23.57;54.59
59435;BME280;45241;49.768;8.636;2023-06-10T01:50:42;99846.03;;;23.77;54.23
59435;BME280;45241;49.768;8.636;2023-06-10T01:53:09;99846.16;;;23.96;53.79
59435;BME280;45241;49.768;8.636;2023-06-10T01:55:34;99840.22;;;23.55;54.93
59435;BME280;45241;49.768;8.636;2023-06-10T01:57:59;99846.44;;;23.61;55.31
59435;BME280;45241;49.768;8.636;2023-06-10T02:00:25;99850.25;;;23.31;56.70
59435;BME280;45241;49.768;8.636;2023-06-10T02:02:50;99851.25;;;22.96;57.56
59435;BME280;45241;49.768;8.636;2023-06-10T02:05:15;99851.19;;;23.06;57.65
59435;BME280;45241;49.768;8.636;2023-06-10T02:07:41;99851.47;;;23.48;56.46
59435;BME280;45241;49.768;8.636;2023-06-10T02:10:06;99853.59;;;23.17;56.94
59435;BME280;45241;49.768;8.636;2023-06-10T02:12:32;99851.84;;;22.87;58.09
59435;BME280;45241;49.768;8.636;2023-06-10T02:14:57;99850.81;;;22.78;59.33
59435;BME280;45241;49.768;8.636;2023-06-10T02:17:23;99857.72;;;23.10;58.83
59435;BME280;45241;49.768;8.636;2023-06-10T02:19:48;99853.53;;;22.78;59.44
59435;BME280;45241;49.768;8.636;2023-06-10T02:22:22;99856.63;;;22.62;58.87
59435;BME280;45241;49.768;8.636;2023-06-10T02:24:48;99854.72;;;23.11;56.61
59435;BME280;45241;49.768;8.636;2023-06-10T02:27:14;99857.44;;;23.56;55.86
59435;BME280;45241;49.768;8.636;2023-06-10T02:29:39;99854.97;;;22.66;58.84
59435;BME280;45241;49.768;8.636;2023-06-10T02:32:06;99847.84;;;22.65;59.06
59435;BME280;45241;49.768;8.636;2023-06-10T02:34:32;99847.56;;;22.66;58.50
59435;BME280;45241;49.768;8.636;2023-06-10T02:36:57;99854.44;;;23.13;58.29
59435;BME280;45241;49.768;8.636;2023-06-10T02:39:22;99857.41;;;22.67;59.33
59435;BME280;45241;49.768;8.636;2023-06-10T02:41:48;99858.63;;;22.36;59.64
59435;BME280;45241;49.768;8.636;2023-06-10T02:44:13;99853.06;;;22.61;59.16
59435;BME280;45241;49.768;8.636;2023-06-10T02:46:38;99859.06;;;22.63;59.28
59435;BME280;45241;49.768;8.636;2023-06-10T02:49:04;99852.53;;;22.59;59.77
59435;BME280;45241;49.768;8.636;2023-06-10T02:51:29;99858.13;;;22.03;61.43
59435;BME280;45241;49.768;8.636;2023-06-10T02:53:54;99859.69;;;22.35;60.52
59435;BME280;45241;49.768;8.636;2023-06-10T02:56:20;99855.81;;;22.61;60.23
59435;BME280;45241;49.768;8.636;2023-06-10T02:58:46;99858.00;;;22.54;60.16
59435;BME280;45241;49.768;8.636;2023-06-10T03:01:12;99855.66;;;22.01;63.42
59435;BME280;45241;49.768;8.636;2023-06-10T03:03:38;99861.38;;;22.05;62.92
59435;BME280;45241;49.768;8.636;2023-06-10T03:06:07;99857.59;;;21.91;64.75
59435;BME280;45241;49.768;8.636;2023-06-10T03:08:33;99862.50;;;21.53;64.65
59435;BME280;45241;49.768;8.636;2023-06-10T03:10:58;99860.91;;;21.67;65.21
59435;BME280;45241;49.768;8.636;2023-06-10T03:13:24;99866.28;;;21.27;66.92
59435;BME280;45241;49.768;8.636;2023-06-10T03:15:49;99861.69;;;21.63;65.19
59435;BME280;45241;49.768;8.636;2023-06-10T03:18:15;99866.81;;;21.24;67.68
59435;BME280;45241;49.768;8.636;2023-06-10T03:20:40;99862.44;;;21.07;67.93
59435;BME280;45241;49.768;8.636;2023-06-10T03:23:05;99867.63;;;21.04;70.08
59435;BME280;45241;49.768;8.636;2023-06-10T03:25:32;99865.41;;;20.96;69.30
59435;BME280;45241;49.768;8.636;2023-06-10T03:27:57;99877.84;;;20.66;70.49
59435;BME280;45241;49.768;8.636;2023-06-10T03:30:22;99879.25;;;20.84;69.27
59435;BME280;45241;49.768;8.636;2023-06-10T03:32:48;99886.34;;;20.80;68.04
59435;BME280;45241;49.768;8.636;2023-06-10T03:35:14;99875.13;;;20.71;72.09
59435;BME280;45241;49.768;8.636;2023-06-10T03:37:40;99883.88;;;20.83;69.07
59435;BME280;45241;49.768;8.636;2023-06-10T03:40:06;99874.91;;;20.88;68.45
59435;BME280;45241;49.768;8.636;2023-06-10T03:42:32;99884.78;;;20.47;71.02
59435;BME280;45241;49.768;8.636;2023-06-10T03:44:57;99874.41;;;20.39;71.46
59435;BME280;45241;49.768;8.636;2023-06-10T03:47:23;99878.94;;;20.65;69.30
59435;BME280;45241;49.768;8.636;2023-06-10T03:49:48;99886.28;;;20.65;69.69
59435;BME280;45241;49.768;8.636;2023-06-10T03:52:13;99888.38;;;20.58;71.71
59435;BME280;45241;49.768;8.636;2023-06-10T03:54:39;99881.66;;;20.65;70.26
59435;BME280;45241;49.768;8.636;2023-06-10T03:57:04;99889.81;;;20.65;69.89
59435;BME280;45241;49.768;8.636;2023-06-10T03:59:31;99896.69;;;20.31;72.31
59435;BME280;45241;49.768;8.636;2023-06-10T04:01:56;99899.63;;;20.66;70.85
59435;BME280;45241;49.768;8.636;2023-06-10T04:04:23;99897.09;;;20.60;69.81
59435;BME280;45241;49.768;8.636;2023-06-10T04:06:48;99897.72;;;20.67;70.40
59435;BME280;45241;49.768;8.636;2023-06-10T04:09:14;99902.25;;;20.51;71.41
59435;BME280;45241;49.768;8.636;2023-06-10T04:11:41;99904.91;;;20.41;71.52
59435;BME280;45241;49.768;8.636;2023-06-10T04:14:07;99902.53;;;20.54;73.32
59435;BME280;45241;49.768;8.636;2023-06-10T04:16:33;99907.34;;;20.37;72.99
59435;BME280;45241;49.768;8.636;2023-06-10T04:18:59;99904.97;;;20.51;73.24
59435;BME280;45241;49.768;8.636;2023-06-10T04:21:25;99896.81;;;20.51;73.00
59435;BME280;45241;49.768;8.636;2023-06-10T04:23:51;99908.06;;;20.65;73.98
59435;BME280;45241;49.768;8.636;2023-06-10T04:26:16;99911.25;;;20.57;73.44
59435;BME280;45241;49.768;8.636;2023-06-10T04:28:43;99917.34;;;20.69;72.89
59435;BME280;45241;49.768;8.636;2023-06-10T04:31:08;99915.88;;;20.56;74.58
59435;BME280;45241;49.768;8.636;2023-06-10T04:33:34;99912.00;;;20.42;74.85
59435;BME280;45241;49.768;8.636;2023-06-10T04:35:59;99913.50;;;20.65;73.24
59435;BME280;45241;49.768;8.636;2023-06-10T04:38:24;99911.38;;;20.77;72.16
59435;BME280;45241;49.768;8.636;2023-06-10T04:40:50;99918.47;;;20.78;74.85
59435;BME280;45241;49.768;8.636;2023-06-10T04:43:15;99910.91;;;20.43;77.45
59435;BME280;45241;49.768;8.636;2023-06-10T04:45:41;99905.81;;;20.62;76.85
59435;BME280;45241;49.768;8.636;2023-06-10T04:48:10;99907.22;;;20.64;76.22
59435;BME280;45241;49.768;8.636;2023-06-10T04:50:36;99905.34;;;20.70;76.43
59435;BME280;45241;49.768;8.636;2023-06-10T04:53:01;99910.16;;;20.58;77.08
59435;BME280;45241;49.768;8.636;2023-06-10T04:55:26;99904.31;;;20.86;75.68
59435;BME280;45241;49.768;8.636;2023-06-10T04:57:52;99910.03;;;20.84;74.45
59435;BME280;45241;49.768;8.636;2023-06-10T05:00:17;99908.41;;;20.89;71.85
59435;BME280;45241;49.768;8.636;2023-06-10T05:02:43;99906.59;;;21.04;75.37
59435;BME280;45241;49.768;8.636;2023-06-10T05:05:08;99916.34;;;21.00;72.62
59435;BME280;45241;49.768;8.636;2023-06-10T05:07:33;99902.81;;;21.21;71.69
59435;BME280;45241;49.768;8.636;2023-06-10T05:09:59;99910.44;;;21.24;75.41
59435;BME280;45241;49.768;8.636;2023-06-10T05:12:24;99905.28;;;21.37;74.70
59435;BME280;45241;49.768;8.636;2023-06-10T05:14:50;99905.28;;;21.37;71.72
59435;BME280;45241;49.768;8.636;2023-06-10T05:17:15;99912.09;;;21.35;71.10
59435;BME280;45241;49.768;8.636;2023-06-10T05:19:41;99916.75;;;21.45;70.19
59435;BME280;45241;49.768;8.636;2023-06-10T05:22:08;99919.72;;;21.38;70.95
59435;BME280;45241;49.768;8.636;2023-06-10T05:24:33;99911.88;;;21.62;70.30
59435;BME280;45241;49.768;8.636;2023-06-10T05:26:58;99918.44;;;21.56;69.55
59435;BME280;45241;49.768;8.636;2023-06-10T05:29:24;99920.63;;;21.79;70.41
59435;BME280;45241;49.768;8.636;2023-06-10T05:31:49;99918.19;;;21.98;69.23
59435;BME280;45241;49.768;8.636;2023-06-10T05:34:15;99922.53;;;21.89;68.71
59435;BME280;45241;49.768;8.636;2023-06-10T05:36:40;99921.97;;;22.12;69.03
59435;BME280;45241;49.768;8.636;2023-06-10T05:39:05;99933.97;;;22.16;68.71
59435;BME280;45241;49.768;8.636;2023-06-10T05:41:31;99922.53;;;22.14;67.81
59435;BME280;45241;49.768;8.636;2023-06-10T05:43:56;99920.34;;;22.01;68.63
59435;BME280;45241;49.768;8.636;2023-06-10T05:46:21;99927.97;;;22.40;68.75
59435;BME280;45241;49.768;8.636;2023-06-10T05:48:47;99933.13;;;22.31;67.61
59435;BME280;45241;49.768;8.636;2023-06-10T05:51:12;99919.72;;;22.65;66.30
59435;BME280;45241;49.768;8.636;2023-06-10T05:53:37;99924.47;;;23.04;62.39
59435;BME280;45241;49.768;8.636;2023-06-10T05:56:03;99933.63;;;23.33;60.71
59435;BME280;45241;49.768;8.636;2023-06-10T05:58:29;99922.22;;;23.21;60.25
59435;BME280;45241;49.768;8.636;2023-06-10T06:00:54;99923.22;;;23.35;59.12
59435;BME280;45241;49.768;8.636;2023-06-10T06:03:19;99925.88;;;23.85;58.50
59435;BME280;45241;49.768;8.636;2023-06-10T06:05:45;99926.25;;;23.73;58.29
59435;BME280;45241;49.768;8.636;2023-06-10T06:08:11;99929.50;;;23.80;57.42
59435;BME280;45241;49.768;8.636;2023-06-10T06:10:38;99915.16;;;23.88;57.22
59435;BME280;45241;49.768;8.636;2023-06-10T06:13:03;99915.34;;;23.68;57.71
59435;BME280;45241;49.768;8.636;2023-06-10T06:15:29;99915.41;;;23.63;57.96
59435;BME280;45241;49.768;8.636;2023-06-10T06:17:54;99920.47;;;23.80;57.44
59435;BME280;45241;49.768;8.636;2023-06-10T06:20:20;99922.13;;;24.10;56.69
59435;BME280;45241;49.768;8.636;2023-06-10T06:22:46;99909.66;;;23.98;56.82
59435;BME280;45241;49.768;8.636;2023-06-10T06:25:11;99925.38;;;24.17;57.06
59435;BME280;45241;49.768;8.636;2023-06-10T06:27:37;99917.59;;;24.29;57.13
59435;BME280;45241;49.768;8.636;2023-06-10T06:30:03;99917.03;;;24.27;56.58
59435;BME280;45241;49.768;8.636;2023-06-10T06:32:28;99922.88;;;24.20;57.27
59435;BME280;45241;49.768;8.636;2023-06-10T06:34:53;99923.88;;;24.53;56.00
59435;BME280;45241;49.768;8.636;2023-06-10T06:37:23;99920.59;;;24.27;57.10
59435;BME280;45241;49.768;8.636;2023-06-10T06:39:49;99926.13;;;24.22;57.46
59435;BME280;45241;49.768;8.636;2023-06-10T06:42:15;99920.25;;;24.34;56.67
59435;BME280;45241;49.768;8.636;2023-06-10T06:44:40;99930.19;;;24.54;56.38
59435;BME280;45241;49.768;8.636;2023-06-10T06:47:06;99932.81;;;24.64;55.97
59435;BME280;45241;49.768;8.636;2023-06-10T06:49:31;99931.53;;;24.56;56.51
59435;BME280;45241;49.768;8.636;2023-06-10T06:51:57;99934.53;;;24.84;55.19
59435;BME280;45241;49.768;8.636;2023-06-10T06:54:22;99938.31;;;24.88;55.28
59435;BME280;45241;49.768;8.636;2023-06-10T06:56:47;99937.28;;;24.84;55.59
59435;BME280;45241;49.768;8.636;2023-06-10T06:59:13;99930.41;;;25.05;55.00
59435;BME280;45241;49.768;8.636;2023-06-10T07:01:39;99937.72;;;24.91;55.17
59435;BME280;45241;49.768;8.636;2023-06-10T07:04:04;99944.78;;;24.97;55.23
59435;BME280;45241;49.768;8.636;2023-06-10T07:06:30;99947.81;;;25.19;55.10
59435;BME280;45241;49.768;8.636;2023-06-10T07:08:55;99949.34;;;25.26;55.04
59435;BME280;45241;49.768;8.636;2023-06-10T07:11:20;99948.88;;;25.18;54.84
59435;BME280;45241;49.768;8.636;2023-06-10T07:13:47;99948.88;;;25.18;55.11
59435;BME280;45241;49.768;8.636;2023-06-10T07:16:12;99941.72;;;25.22;55.83
59435;BME280;45241;49.768;8.636;2023-06-10T07:18:37;99952.88;;;25.50;54.75
59435;BME280;45241;49.768;8.636;2023-06-10T07:21:03;99945.25;;;25.47;55.26
59435;BME280;45241;49.768;8.636;2023-06-10T07:23:28;99940.88;;;25.46;56.12
59435;BME280;45241;49.768;8.636;2023-06-10T07:25:54;99951.31;;;25.44;56.47
59435;BME280;45241;49.768;8.636;2023-06-10T07:28:19;99952.78;;;25.55;54.41
59435;BME280;45241;49.768;8.636;2023-06-10T07:30:44;99959.56;;;25.63;55.92
59435;BME280;45241;49.768;8.636;2023-06-10T07:33:10;99959.56;;;25.63;55.17
59435;BME280;45241;49.768;8.636;2023-06-10T07:35:36;99958.03;;;25.70;54.88
59435;BME280;45241;49.768;8.636;2023-06-10T07:38:01;99959.81;;;25.80;54.64
59435;BME280;45241;49.768;8.636;2023-06-10T07:40:26;99956.31;;;25.93;53.76
59435;BME280;45241;49.768;8.636;2023-06-10T07:42:52;99952.09;;;25.82;53.91
59435;BME280;45241;49.768;8.636;2023-06-10T07:45:18;99944.22;;;25.94;53.37
59435;BME280;45241;49.768;8.636;2023-06-10T07:47:43;99947.41;;;26.01;53.88
59435;BME280;45241;49.768;8.636;2023-06-10T07:50:09;99939.13;;;26.20;53.90
59435;BME280;45241;49.768;8.636;2023-06-10T07:52:34;99948.13;;;26.26;53.08
59435;BME280;45241;49.768;8.636;2023-06-10T07:55:00;99947.41;;;26.34;52.81
59435;BME280;45241;49.768;8.636;2023-06-10T07:57:25;99950.28;;;26.43;53.44
59435;BME280;45241;49.768;8.636;2023-06-10T07:59:50;99948.84;;;26.31;53.53
59435;BME280;45241;49.768;8.636;2023-06-10T08:02:16;99937.53;;;26.00;54.47
59435;BME280;45241;49.768;8.636;2023-06-10T08:04:41;99950.47;;;26.32;54.37
59435;BME280;45241;49.768;8.636;2023-06-10T08:07:06;99943.59;;;26.76;53.45
59435;BME280;45241;49.768;8.636;2023-06-10T08:09:32;99959.31;;;26.89;53.36
59435;BME280;45241;49.768;8.636;2023-06-10T08:11:57;99954.69;;;26.71;53.07
59435;BME280;45241;49.768;8.636;2023-06-10T08:14:22;99960.94;;;26.90;53.40
59435;BME280;45241;49.768;8.636;2023-06-10T08:16:48;99957.38;;;26.90;53.02
59435;BME280;45241;49.768;8.636;2023-06-10T08:19:13;99956.75;;;26.93;53.23
59435;BME280;45241;49.768;8.636;2023-06-10T08:21:38;99956.22;;;26.77;52.91
59435;BME280;45241;49.768;8.636;2023-06-10T08:24:06;99948.72;;;26.83;54.05
59435;BME280;45241;49.768;8.636;2023-06-10T08:26:31;99957.56;;;27.07;53.20
59435;BME280;45241;49.768;8.636;2023-06-10T08:28:56;99960.19;;;27.12;53.60
59435;BME280;45241;49.768;8.636;2023-06-10T08:31:22;99961.19;;;27.30;53.93
59435;BME280;45241;49.768;8.636;2023-06-10T08:33:47;99967.09;;;27.37;52.18
59435;BME280;45241;49.768;8.636;2023-06-10T08:36:12;99970.50;;;27.07;52.33
59435;BME280;45241;49.768;8.636;2023-06-10T08:38:38;99969.38;;;27.08;51.72
59435;BME280;45241;49.768;8.636;2023-06-10T08:41:05;99962.06;;;27.03;53.16
59435;BME280;45241;49.768;8.636;2023-06-10T08:43:42;99960.25;;;27.48;52.72
59435;BME280;45241;49.768;8.636;2023-06-10T08:46:09;99949.25;;;27.48;51.88
59435;BME280;45241;49.768;8.636;2023-06-10T08:48:41;99954.72;;;27.62;52.30
59435;BME280;45241;49.768;8.636;2023-06-10T08:51:09;99960.94;;;27.40;50.65
59435;BME280;45241;49.768;8.636;2023-06-10T08:53:37;99956.19;;;27.46;51.61
59435;BME280;45241;49.768;8.636;2023-06-10T08:56:04;99963.72;;;27.54;52.34
59435;BME280;45241;49.768;8.636;2023-06-10T08:58:32;99962.22;;;27.20;51.99
59435;BME280;45241;49.768;8.636;2023-06-10T09:00:58;99950.09;;;27.21;51.94
59435;BME280;45241;49.768;8.636;2023-06-10T09:03:25;99959.81;;;27.05;52.84
59435;BME280;45241;49.768;8.636;2023-06-10T09:05:50;99956.03;;;27.15;52.82
59435;BME280;45241;49.768;8.636;2023-06-10T09:08:16;99949.81;;;27.09;52.91
59435;BME280;45241;49.768;8.636;2023-06-10T09:10:41;99946.69;;;27.38;52.82
59435;BME280;45241;49.768;8.636;2023-06-10T09:13:07;99947.31;;;27.49;52.68
59435;BME280;45241;49.768;8.636;2023-06-10T09:15:32;99949.78;;;27.73;52.46
59435;BME280;45241;49.768;8.636;2023-06-10T09:17:58;99950.41;;;27.92;52.45
59435;BME280;45241;49.768;8.636;2023-06-10T09:20:24;99944.41;;;28.12;52.02
59435;BME280;45241;49.768;8.636;2023-06-10T09:22:50;99942.97;;;28.15;52.04
59435;BME280;45241;49.768;8.636;2023-06-10T09:25:15;99933.38;;;27.90;51.78
59435;BME280;45241;49.768;8.636;2023-06-10T09:27:51;99944.00;;;28.19;51.76
59435;BME280;45241;49.768;8.636;2023-06-10T09:30:30;99940.69;;;28.39;51.75
59435;BME280;45241;49.768;8.636;2023-06-10T09:32:57;99935.19;;;28.17;51.24
59435;BME280;45241;49.768;8.636;2023-06-10T09:35:23;99926.00;;;28.22;51.16
59435;BME280;45241;49.768;8.636;2023-06-10T09:37:53;99920.16;;;28.23;51.84
59435;BME280;45241;49.768;8.636;2023-06-10T09:40:19;99925.66;;;28.54;51.17
59435;BME280;45241;49.768;8.636;2023-06-10T09:42:44;99917.00;;;28.38;50.94
59435;BME280;45241;49.768;8.636;2023-06-10T09:45:10;99921.91;;;28.50;51.08
59435;BME280;45241;49.768;8.636;2023-06-10T09:47:35;99916.25;;;28.55;49.69
59435;BME280;45241;49.768;8.636;2023-06-10T09:50:00;99923.44;;;28.65;49.71
59435;BME280;45241;49.768;8.636;2023-06-10T09:52:28;99920.94;;;28.46;48.22
59435;BME280;45241;49.768;8.636;2023-06-10T09:54:59;99916.09;;;28.52;48.98
59435;BME280;45241;49.768;8.636;2023-06-10T09:57:25;99912.34;;;28.48;49.24
59435;BME280;45241;49.768;8.636;2023-06-10T09:59:54;99907.50;;;29.01;48.76
59435;BME280;45241;49.768;8.636;2023-06-10T10:02:20;99913.50;;;28.95;48.24
59435;BME280;45241;49.768;8.636;2023-06-10T10:04:45;99916.91;;;28.92;47.00
59435;BME280;45241;49.768;8.636;2023-06-10T10:07:11;99908.66;;;29.18;47.16
59435;BME280;45241;49.768;8.636;2023-06-10T10:09:38;99913.38;;;29.35;49.18
59435;BME280;45241;49.768;8.636;2023-06-10T10:12:11;99909.97;;;29.12;48.68
59435;BME280;45241;49.768;8.636;2023-06-10T10:14:37;99909.03;;;29.42;47.70
59435;BME280;45241;49.768;8.636;2023-06-10T10:17:10;99910.00;;;29.46;50.17
59435;BME280;45241;49.768;8.636;2023-06-10T10:19:42;99898.44;;;29.27;47.58
59435;BME280;45241;49.768;8.636;2023-06-10T10:22:19;99914.53;;;29.34;49.14
59435;BME280;45241;49.768;8.636;2023-06-10T10:24:56;99904.66;;;29.58;48.83
59435;BME280;45241;49.768;8.636;2023-06-10T10:30:14;99907.03;;;29.08;48.13
59435;BME280;45241;49.768;8.636;2023-06-10T10:32:53;99907.88;;;29.26;48.40
59435;BME280;45241;49.768;8.636;2023-06-10T10:35:23;99905.06;;;29.09;47.60
59435;BME280;45241;49.768;8.636;2023-06-10T10:37:50;99901.69;;;29.29;48.87
59435;BME280;45241;49.768;8.636;2023-06-10T10:40:17;99896.50;;;29.10;47.72
59435;BME280;45241;49.768;8.636;2023-06-10T10:42:42;99894.25;;;29.64;46.61
59435;BME280;45241;49.768;8.636;2023-06-10T10:45:09;99905.44;;;29.85;46.36
59435;BME280;45241;49.768;8.636;2023-06-10T10:47:36;99893.28;;;29.51;47.77
59435;BME280;45241;49.768;8.636;2023-06-10T10:50:13;99907.72;;;29.74;47.50
59435;BME280;45241;49.768;8.636;2023-06-10T10:52:51;99888.72;;;29.81;46.02
59435;BME280;45241;49.768;8.636;2023-06-10T10:55:17;99890.19;;;29.70;45.34
59435;BME280;45241;49.768;8.636;2023-06-10T10:57:43;99877.53;;;29.52;47.02
59435;BME280;45241;49.768;8.636;2023-06-10T11:00:09;99880.63;;;30.40;44.48
59435;BME280;45241;49.768;8.636;2023-06-10T11:05:14;99871.44;;;30.48;43.83
59435;BME280;45241;49.768;8.636;2023-06-10T11:07:51;99873.22;;;30.53;45.35
59435;BME280;45241;49.768;8.636;2023-06-10T11:10:17;99871.44;;;30.48;43.24
59435;BME280;45241;49.768;8.636;2023-06-10T11:15:18;99872.78;;;30.42;42.10
59435;BME280;45241;49.768;8.636;2023-06-10T11:18:07;99871.19;;;31.00;41.21
59435;BME280;45241;49.768;8.636;2023-06-10T11:31:41;99857.56;;;31.58;39.95
59435;BME280;45241;49.768;8.636;2023-06-10T11:34:07;99864.50;;;31.64;39.99
59435;BME280;45241;49.768;8.636;2023-06-10T11:36:34;99852.69;;;31.55;39.63
59435;BME280;45241;49.768;8.636;2023-06-10T11:39:05;99861.44;;;31.78;39.35
59435;BME280;45241;49.768;8.636;2023-06-10T11:41:32;99861.38;;;31.66;39.93
59435;BME280;45241;49.768;8.636;2023-06-10T11:44:03;99841.59;;;31.76;39.50
59435;BME280;45241;49.768;8.636;2023-06-10T11:46:28;99847.22;;;31.46;40.50
59435;BME280;45241;49.768;8.636;2023-06-10T11:48:55;99849.44;;;31.74;39.81
59435;BME280;45241;49.768;8.636;2023-06-10T11:51:21;99852.31;;;31.44;39.54
59435;BME280;45241;49.768;8.636;2023-06-10T11:53:50;99844.94;;;31.48;40.27
59435;BME280;45241;49.768;8.636;2023-06-10T11:56:25;99845.41;;;31.09;40.14
59435;BME280;45241;49.768;8.636;2023-06-10T11:58:57;99855.09;;;31.77;40.07
59435;BME280;45241;49.768;8.636;2023-06-10T12:01:23;99847.06;;;31.63;39.16
59435;BME280;45241;49.768;8.636;2023-06-10T12:04:03;99848.97;;;31.30;38.85
59435;BME280;45241;49.768;8.636;2023-06-10T12:06:58;99855.66;;;31.08;38.25
59435;BME280;45241;49.768;8.636;2023-06-10T12:09:27;99849.09;;;31.54;38.99
59435;BME280;45241;49.768;8.636;2023-06-10T12:12:01;99847.38;;;31.83;38.83
59435;BME280;45241;49.768;8.636;2023-06-10T12:14:50;99844.06;;;31.36;38.52
59435;BME280;45241;49.768;8.636;2023-06-10T12:17:21;99846.97;;;31.39;40.64
59435;BME280;45241;49.768;8.636;2023-06-10T12:19:47;99842.41;;;31.55;39.40
59435;BME280;45241;49.768;8.636;2023-06-10T12:22:13;99848.09;;;31.59;38.64
59435;BME280;45241;49.768;8.636;2023-06-10T12:24:46;99837.50;;;32.18;38.20
59435;BME280;45241;49.768;8.636;2023-06-10T12:27:22;99834.47;;;31.33;38.75
59435;BME280;45241;49.768;8.636;2023-06-10T12:29:52;99828.47;;;31.85;39.95
59435;BME280;45241;49.768;8.636;2023-06-10T12:32:20;99835.59;;;32.31;39.50
59435;BME280;45241;49.768;8.636;2023-06-10T12:35:02;99839.28;;;32.47;39.00
59435;BME280;45241;49.768;8.636;2023-06-10T12:37:29;99837.63;;;32.22;38.59
59435;BME280;45241;49.768;8.636;2023-06-10T12:39:54;99841.84;;;32.40;38.17
59435;BME280;45241;49.768;8.636;2023-06-10T12:42:24;99845.44;;;31.96;38.12
59435;BME280;45241;49.768;8.636;2023-06-10T12:44:53;99845.84;;;31.52;39.29
59435;BME280;45241;49.768;8.636;2023-06-10T12:47:18;99838.97;;;31.91;39.02
59435;BME280;45241;49.768;8.636;2023-06-10T12:49:43;99840.09;;;32.48;37.33
59435;BME280;45241;49.768;8.636;2023-06-10T12:52:09;99850.53;;;32.06;38.13
59435;BME280;45241;49.768;8.636;2023-06-10T12:54:34;99830.75;;;31.29;38.86
59435;BME280;45241;49.768;8.636;2023-06-10T12:57:00;99834.78;;;31.11;39.34
59435;BME280;45241;49.768;8.636;2023-06-10T12:59:26;99843.03;;;30.98;39.40
59435;BME280;45241;49.768;8.636;2023-06-10T13:01:53;99831.19;;;31.73;38.39
59435;BME280;45241;49.768;8.636;2023-06-10T13:04:18;99831.00;;;31.90;37.26
59435;BME280;45241;49.768;8.636;2023-06-10T13:06:44;99839.63;;;32.34;38.24
59435;BME280;45241;49.768;8.636;2023-06-10T13:09:10;99840.56;;;32.62;37.92
59435;BME280;45241;49.768;8.636;2023-06-10T13:11:35;99821.22;;;32.17;36.89
59435;BME280;45241;49.768;8.636;2023-06-10T13:14:02;99829.13;;;32.64;38.29
59435;BME280;45241;49.768;8.636;2023-06-10T13:16:28;99817.44;;;32.34;37.67
59435;BME280;45241;49.768;8.636;2023-06-10T13:18:54;99818.56;;;32.69;38.54
59435;BME280;45241;49.768;8.636;2023-06-10T13:21:19;99825.53;;;32.63;38.12